createdAt,value
2019-03-26T00:01:46.895Z,101632.75
2019-03-26T00:04:19.033Z,101641.46
2019-03-26T00:06:50.347Z,101642.77
2019-03-26T00:09:21.717Z,101643.67
2019-03-26T00:11:53.687Z,101639.84
2019-03-26T00:14:25.933Z,101643.23
2019-03-26T00:16:57.317Z,101656.34
2019-03-26T00:19:28.860Z,101642.12
2019-03-26T00:22:00.223Z,101639.10
2019-03-26T00:24:32.095Z,101633.95
2019-03-26T00:27:07.622Z,101643.03
2019-03-26T00:29:38.053Z,101645.15
2019-03-26T00:32:09.466Z,101653.04
2019-03-26T00:34:41.070Z,101643.06
2019-03-26T00:37:13.876Z,101650.98
2019-03-26T00:39:45.969Z,101652.30
2019-03-26T00:42:17.324Z,101658.50
2019-03-26T00:44:49.263Z,101655.95
2019-03-26T00:47:20.944Z,101652.38
2019-03-26T00:49:52.615Z,101656.70
2019-03-26T00:52:24.458Z,101659.88
2019-03-26T00:54:58.209Z,101660.36
2019-03-26T00:57:29.966Z,101666.51
2019-03-26T01:00:01.874Z,101661.22
2019-03-26T01:02:33.343Z,101663.83
2019-03-26T01:05:05.657Z,101671.98
2019-03-26T01:07:37.380Z,101668.54
2019-03-26T01:10:21.255Z,101676.34
2019-03-26T01:12:52.785Z,101684.73
2019-03-26T01:15:24.779Z,101689.45
2019-03-26T01:17:56.162Z,101684.63
2019-03-26T01:20:28.030Z,101685.94
2019-03-26T01:23:01.913Z,101689.41
2019-03-26T01:25:33.304Z,101686.31
2019-03-26T01:28:04.891Z,101687.52
2019-03-26T01:30:36.506Z,101693.23
2019-03-26T01:33:08.118Z,101694.02
2019-03-26T01:35:39.727Z,101691.33
2019-03-26T01:38:11.171Z,101686.55
2019-03-26T01:40:42.632Z,101686.47
2019-03-26T01:43:14.988Z,101689.16
2019-03-26T01:45:46.692Z,101685.23
2019-03-26T01:48:18.470Z,101678.17
2019-03-26T01:50:50.707Z,101678.70
2019-03-26T01:53:22.093Z,101686.02
2019-03-26T01:55:53.999Z,101681.23
2019-03-26T01:58:25.703Z,101676.00
2019-03-26T02:00:58.337Z,101669.42
2019-03-26T02:03:30.522Z,101677.63
2019-03-26T02:06:03.000Z,101673.17
2019-03-26T02:08:35.017Z,101669.24
2019-03-26T02:11:06.682Z,101674.97
2019-03-26T02:13:38.430Z,101680.08
2019-03-26T02:16:10.147Z,101681.34
2019-03-26T02:18:42.194Z,101673.48
2019-03-26T02:21:14.918Z,101677.83
2019-03-26T02:23:46.551Z,101679.98
2019-03-26T02:26:17.938Z,101679.08
2019-03-26T02:28:50.032Z,101676.00
2019-03-26T02:31:21.808Z,101679.12
2019-03-26T02:33:53.772Z,101687.28
2019-03-26T02:36:25.146Z,101678.18
2019-03-26T02:38:56.827Z,101680.20
2019-03-26T02:41:29.546Z,101681.16
2019-03-26T02:44:00.942Z,101678.53
2019-03-26T02:46:32.819Z,101687.23
2019-03-26T02:49:04.516Z,101688.19
2019-03-26T02:51:36.222Z,101684.72
2019-03-26T02:54:07.701Z,101686.97
2019-03-26T02:56:42.760Z,101696.72
2019-03-26T02:59:14.749Z,101696.72
2019-03-26T03:01:46.407Z,101700.73
2019-03-26T03:04:18.013Z,101700.40
2019-03-26T03:06:55.278Z,101712.13
2019-03-26T03:09:27.130Z,101712.17
2019-03-26T03:11:59.050Z,101706.86
2019-03-26T03:14:30.788Z,101702.00
2019-03-26T03:17:02.387Z,101701.17
2019-03-26T03:19:33.759Z,101698.84
2019-03-26T03:22:05.283Z,101686.56
2019-03-26T03:24:37.148Z,101694.02
2019-03-26T03:27:08.927Z,101691.31
2019-03-26T03:29:40.573Z,101701.01
2019-03-26T03:32:12.655Z,101705.78
2019-03-26T03:34:44.235Z,101693.47
2019-03-26T03:37:15.893Z,101698.21
2019-03-26T03:39:47.240Z,101695.55
2019-03-26T03:42:19.249Z,101695.18
2019-03-26T03:44:50.585Z,101697.80
2019-03-26T03:47:22.569Z,101693.33
2019-03-26T03:49:54.352Z,101697.25
2019-03-26T03:52:26.457Z,101691.20
2019-03-26T03:54:57.827Z,101686.39
2019-03-26T03:57:32.565Z,101694.59
2019-03-26T04:00:04.791Z,101695.50
2019-03-26T04:02:36.404Z,101693.34
2019-03-26T04:05:07.919Z,101704.88
2019-03-26T04:07:39.369Z,101697.84
2019-03-26T04:10:12.461Z,101697.44
2019-03-26T04:12:44.172Z,101699.06
2019-03-26T04:15:15.866Z,101696.91
2019-03-26T04:17:47.257Z,101699.61
2019-03-26T04:20:18.684Z,101698.80
2019-03-26T04:22:50.322Z,101694.02
2019-03-26T04:25:21.971Z,101701.82
2019-03-26T04:27:53.469Z,101689.14
2019-03-26T04:30:32.090Z,101699.61
2019-03-26T04:33:04.457Z,101697.49
2019-03-26T04:35:37.035Z,101690.91
2019-03-26T04:38:08.468Z,101698.30
2019-03-26T04:40:40.168Z,101680.89
2019-03-26T04:43:11.862Z,101684.31
2019-03-26T04:45:43.279Z,101692.07
2019-03-26T04:48:14.895Z,101693.92
2019-03-26T04:50:46.525Z,101698.75
2019-03-26T04:53:17.898Z,101704.88
2019-03-26T04:55:49.271Z,101703.12
2019-03-26T04:58:20.620Z,101712.69
2019-03-26T05:00:52.211Z,101705.60
2019-03-26T05:03:23.823Z,101709.58
2019-03-26T05:05:55.255Z,101708.72
2019-03-26T05:08:26.631Z,101708.13
2019-03-26T05:10:58.070Z,101708.99
2019-03-26T05:13:30.098Z,101705.66
2019-03-26T05:16:01.773Z,101703.94
2019-03-26T05:18:33.459Z,101717.03
2019-03-26T05:21:05.717Z,101727.00
2019-03-26T05:23:37.354Z,101723.52
2019-03-26T05:26:08.780Z,101736.12
2019-03-26T05:28:41.244Z,101729.20
2019-03-26T05:31:13.351Z,101717.34
2019-03-26T05:33:45.203Z,101733.09
2019-03-26T05:36:17.243Z,101730.48
2019-03-26T05:38:48.866Z,101734.81
2019-03-26T05:41:20.247Z,101737.43
2019-03-26T05:43:51.669Z,101733.54
2019-03-26T05:46:29.214Z,101744.73
2019-03-26T05:49:01.084Z,101722.53
2019-03-26T05:51:32.884Z,101714.08
2019-03-26T05:54:04.334Z,101718.05
2019-03-26T05:56:35.944Z,101711.91
2019-03-26T05:59:07.759Z,101723.69
2019-03-26T06:01:39.075Z,101719.36
2019-03-26T06:04:10.550Z,101723.70
2019-03-26T06:06:41.926Z,101717.70
2019-03-26T06:09:13.584Z,101722.03
2019-03-26T06:11:45.239Z,101715.39
2019-03-26T06:14:16.898Z,101717.29
2019-03-26T06:16:48.375Z,101717.70
2019-03-26T06:19:20.012Z,101715.03
2019-03-26T06:21:51.665Z,101713.58
2019-03-26T06:24:25.157Z,101714.03
2019-03-26T06:26:57.356Z,101720.92
2019-03-26T06:29:28.967Z,101722.53
2019-03-26T06:32:00.598Z,101726.75
2019-03-26T06:34:33.037Z,101718.16
2019-03-26T06:37:17.062Z,101713.77
2019-03-26T06:39:37.516Z,101717.28
2019-03-26T06:42:09.126Z,101713.91
2019-03-26T06:44:40.547Z,101721.22
2019-03-26T06:47:11.916Z,101726.16
2019-03-26T06:49:44.029Z,101723.73
2019-03-26T06:52:15.394Z,101720.77
2019-03-26T06:54:46.783Z,101721.11
2019-03-26T06:57:18.413Z,101712.30
2019-03-26T06:59:49.788Z,101705.16
2019-03-26T07:02:21.492Z,101701.64
2019-03-26T07:04:53.279Z,101708.99
2019-03-26T07:07:31.496Z,101703.00
2019-03-26T07:09:58.227Z,101709.54
2019-03-26T07:12:29.711Z,101716.25
2019-03-26T07:15:02.387Z,101718.61
2019-03-26T07:17:34.130Z,101716.27
2019-03-26T07:20:06.899Z,101724.87
2019-03-26T07:22:39.843Z,101725.84
2019-03-26T07:25:12.003Z,101724.80
2019-03-26T07:27:43.404Z,101717.47
2019-03-26T07:30:22.692Z,101725.80
2019-03-26T07:32:54.041Z,101730.72
2019-03-26T07:35:25.540Z,101735.94
2019-03-26T07:37:57.248Z,101728.16
2019-03-26T07:40:28.709Z,101735.61
2019-03-26T07:43:00.091Z,101736.13
2019-03-26T07:45:31.780Z,101734.56
2019-03-26T07:48:04.307Z,101747.44
2019-03-26T07:50:35.675Z,101747.52
2019-03-26T07:53:07.435Z,101747.23
2019-03-26T07:55:39.502Z,101745.00
2019-03-26T07:58:10.934Z,101748.59
2019-03-26T08:00:42.939Z,101752.63
2019-03-26T08:03:14.568Z,101751.06
2019-03-26T08:05:46.111Z,101752.36
2019-03-26T08:08:17.493Z,101748.94
2019-03-26T08:10:49.175Z,101760.62
2019-03-26T08:13:20.557Z,101756.05
2019-03-26T08:15:51.933Z,101756.81
2019-03-26T08:18:23.315Z,101765.34
2019-03-26T08:20:57.414Z,101751.05
2019-03-26T08:23:28.061Z,101758.45
2019-03-26T08:25:59.447Z,101750.66
2019-03-26T08:28:30.847Z,101746.86
2019-03-26T08:31:02.209Z,101743.18
2019-03-26T08:33:33.845Z,101737.55
2019-03-26T08:36:05.632Z,101732.28
2019-03-26T08:38:37.249Z,101742.73
2019-03-26T08:41:08.782Z,101747.19
2019-03-26T08:43:41.073Z,101746.80
2019-03-26T08:46:13.024Z,101744.89
2019-03-26T08:48:44.719Z,101718.81
2019-03-26T08:51:16.104Z,101718.81
2019-03-26T08:53:47.787Z,101722.22
2019-03-26T08:56:20.524Z,101732.78
2019-03-26T08:58:51.859Z,101724.44
2019-03-26T09:01:23.408Z,101724.76
2019-03-26T09:04:00.041Z,101730.70
2019-03-26T09:06:34.208Z,101728.84
2019-03-26T09:09:07.673Z,101718.89
2019-03-26T09:11:39.042Z,101718.89
2019-03-26T09:14:10.450Z,101710.84
2019-03-26T09:16:41.913Z,101704.41
2019-03-26T09:19:13.284Z,101698.45
2019-03-26T09:21:44.658Z,101692.05
2019-03-26T09:24:16.143Z,101695.80
2019-03-26T09:26:47.820Z,101690.85
2019-03-26T09:29:19.193Z,101676.50
2019-03-26T09:31:50.829Z,101686.81
2019-03-26T09:34:22.340Z,101682.90
2019-03-26T09:36:54.745Z,101685.37
2019-03-26T09:39:26.153Z,101689.66
2019-03-26T09:41:57.492Z,101677.59
2019-03-26T09:44:29.025Z,101672.66
2019-03-26T09:47:00.950Z,101675.02
2019-03-26T09:49:32.395Z,101672.48
2019-03-26T09:52:03.886Z,101672.77
2019-03-26T09:54:35.556Z,101666.94
2019-03-26T09:57:06.910Z,101661.88
2019-03-26T09:59:38.887Z,101673.91
2019-03-26T10:02:10.378Z,101669.94
2019-03-26T10:04:41.842Z,101666.86
2019-03-26T10:07:21.564Z,101675.73
2019-03-26T10:09:48.606Z,101671.62
2019-03-26T10:12:20.279Z,101677.11
2019-03-26T10:14:51.700Z,101666.66
2019-03-26T10:17:23.551Z,101666.30
2019-03-26T10:19:54.943Z,101666.81
2019-03-26T10:22:26.636Z,101653.69
2019-03-26T10:24:58.616Z,101664.56
2019-03-26T10:27:30.463Z,101656.98
2019-03-26T10:30:02.098Z,101653.10
2019-03-26T10:32:33.932Z,101663.08
2019-03-26T10:35:05.958Z,101655.17
2019-03-26T10:37:37.846Z,101653.19
2019-03-26T10:40:13.204Z,101642.88
2019-03-26T10:42:45.360Z,101653.98
2019-03-26T10:45:16.877Z,101649.75
2019-03-26T10:47:48.779Z,101653.69
2019-03-26T10:50:20.447Z,101654.73
2019-03-26T10:52:52.707Z,101661.77
2019-03-26T10:55:24.110Z,101656.13
2019-03-26T10:57:56.536Z,101655.01
2019-03-26T11:00:28.397Z,101652.38
2019-03-26T11:02:59.918Z,101654.05
2019-03-26T11:05:31.521Z,101646.74
2019-03-26T11:08:03.060Z,101645.08
2019-03-26T11:10:34.656Z,101649.02
2019-03-26T11:13:06.327Z,101641.75
2019-03-26T11:15:38.369Z,101660.25
2019-03-26T11:18:10.132Z,101648.80
2019-03-26T11:20:41.576Z,101648.64
2019-03-26T11:23:13.054Z,101655.27
2019-03-26T11:25:44.523Z,101644.19
2019-03-26T11:28:16.338Z,101655.68
2019-03-26T11:30:48.738Z,101651.15
2019-03-26T11:33:20.493Z,101646.53
2019-03-26T11:35:52.029Z,101646.55
2019-03-26T11:38:23.902Z,101643.17
2019-03-26T11:40:55.327Z,101649.66
2019-03-26T11:43:26.717Z,101654.00
2019-03-26T11:45:59.336Z,101647.86
2019-03-26T11:48:30.702Z,101651.92
2019-03-26T11:51:02.478Z,101653.95
2019-03-26T11:53:34.144Z,101646.38
2019-03-26T11:56:05.566Z,101645.45
2019-03-26T11:58:37.020Z,101649.10
2019-03-26T12:01:09.001Z,101640.66
2019-03-26T12:03:40.626Z,101632.48
2019-03-26T12:06:12.032Z,101628.70
2019-03-26T12:08:43.468Z,101623.09
2019-03-26T12:11:15.157Z,101618.39
2019-03-26T12:13:46.851Z,101615.26
2019-03-26T12:16:18.588Z,101622.16
2019-03-26T12:18:50.120Z,101620.27
2019-03-26T12:21:21.510Z,101613.59
2019-03-26T12:23:53.227Z,101612.59
2019-03-26T12:26:25.195Z,101609.20
2019-03-26T12:28:57.524Z,101613.84
2019-03-26T12:31:29.217Z,101612.30
2019-03-26T12:34:00.608Z,101615.19
2019-03-26T12:36:39.742Z,101634.65
2019-03-26T12:39:07.514Z,101619.31
2019-03-26T12:41:40.354Z,101610.83
2019-03-26T12:44:11.925Z,101603.95
2019-03-26T12:46:43.866Z,101611.47
2019-03-26T12:49:15.686Z,101620.80
2019-03-26T12:51:47.116Z,101616.80
2019-03-26T12:54:18.816Z,101611.62
2019-03-26T12:56:50.193Z,101618.45
2019-03-26T12:59:21.604Z,101611.33
2019-03-26T13:01:53.237Z,101618.14
2019-03-26T13:04:25.686Z,101615.11
2019-03-26T13:06:57.328Z,101618.95
2019-03-26T13:09:29.151Z,101614.48
2019-03-26T13:12:00.539Z,101612.94
2019-03-26T13:14:32.215Z,101619.14
2019-03-26T13:17:03.573Z,101631.05
2019-03-26T13:19:34.976Z,101628.80
2019-03-26T13:22:06.347Z,101627.05
2019-03-26T13:24:38.228Z,101626.67
2019-03-26T13:27:10.466Z,101617.07
2019-03-26T13:29:43.036Z,101614.48
2019-03-26T13:32:14.616Z,101618.52
2019-03-26T13:34:46.280Z,101619.51
2019-03-26T13:37:17.706Z,101625.95
2019-03-26T13:39:49.377Z,101623.94
2019-03-26T13:42:20.847Z,101617.73
2019-03-26T13:44:52.209Z,101622.92
2019-03-26T13:47:23.846Z,101632.58
2019-03-26T13:49:55.281Z,101633.68
2019-03-26T13:52:26.661Z,101633.97
2019-03-26T13:54:58.863Z,101632.09
2019-03-26T13:57:30.642Z,101636.70
2019-03-26T14:00:02.300Z,101647.20
2019-03-26T14:02:33.847Z,101646.57
2019-03-26T14:05:10.255Z,101653.23
2019-03-26T14:07:42.483Z,101649.38
2019-03-26T14:10:14.242Z,101648.13
2019-03-26T14:12:45.643Z,101660.91
2019-03-26T14:15:17.010Z,101650.66
2019-03-26T14:17:48.438Z,101655.00
2019-03-26T14:20:20.223Z,101655.67
2019-03-26T14:22:51.609Z,101664.65
2019-03-26T14:25:23.072Z,101662.77
2019-03-26T14:27:54.479Z,101646.72
2019-03-26T14:30:39.580Z,101646.31
2019-03-26T14:33:11.823Z,101644.73
2019-03-26T14:35:43.281Z,101645.86
2019-03-26T14:38:14.635Z,101650.30
2019-03-26T14:40:54.460Z,101649.34
2019-03-26T14:43:19.314Z,101648.17
2019-03-26T14:45:50.790Z,101653.94
2019-03-26T14:48:22.204Z,101653.98
2019-03-26T14:50:53.791Z,101657.44
2019-03-26T14:53:25.140Z,101653.43
2019-03-26T14:55:56.532Z,101663.82
2019-03-26T14:58:27.881Z,101671.41
2019-03-26T15:00:59.927Z,101666.94
2019-03-26T15:03:31.665Z,101671.61
2019-03-26T15:06:04.720Z,101676.58
2019-03-26T15:08:37.483Z,101669.09
2019-03-26T15:11:09.232Z,101671.63
2019-03-26T15:13:40.903Z,101676.77
2019-03-26T15:16:12.964Z,101675.49
2019-03-26T15:18:44.599Z,101668.14
2019-03-26T15:21:15.968Z,101673.03
2019-03-26T15:23:47.609Z,101672.17
2019-03-26T15:26:19.061Z,101677.43
2019-03-26T15:28:50.456Z,101667.60
2019-03-26T15:31:21.838Z,101664.47
2019-03-26T15:33:53.228Z,101669.75
2019-03-26T15:36:24.599Z,101668.91
2019-03-26T15:38:55.982Z,101673.91
2019-03-26T15:41:30.294Z,101669.02
2019-03-26T15:44:01.002Z,101681.00
2019-03-26T15:46:32.371Z,101674.83
2019-03-26T15:49:03.766Z,101675.22
2019-03-26T15:51:35.445Z,101679.02
2019-03-26T15:54:07.377Z,101678.02
2019-03-26T15:56:38.824Z,101681.94
2019-03-26T15:59:10.783Z,101683.19
2019-03-26T16:01:42.389Z,101688.07
2019-03-26T16:04:14.095Z,101671.94
2019-03-26T16:06:45.565Z,101686.83
2019-03-26T16:09:17.256Z,101683.63
2019-03-26T16:11:48.639Z,101691.73
2019-03-26T16:14:19.987Z,101686.53
2019-03-26T16:16:51.343Z,101684.50
2019-03-26T16:19:32.239Z,101677.84
2019-03-26T16:21:56.040Z,101679.23
2019-03-26T16:24:27.526Z,101685.41
2019-03-26T16:26:58.877Z,101686.73
2019-03-26T16:29:30.266Z,101684.66
2019-03-26T16:32:02.007Z,101686.64
2019-03-26T16:34:33.707Z,101688.44
2019-03-26T16:37:05.075Z,101688.63
2019-03-26T16:39:36.907Z,101690.30
2019-03-26T16:42:08.533Z,101688.44
2019-03-26T16:44:40.161Z,101690.67
2019-03-26T16:47:11.507Z,101693.20
2019-03-26T16:49:43.233Z,101691.93
2019-03-26T16:52:14.835Z,101705.13
2019-03-26T16:54:47.504Z,101694.92
2019-03-26T16:57:18.905Z,101704.60
2019-03-26T16:59:50.303Z,101706.38
2019-03-26T17:02:22.403Z,101703.16
2019-03-26T17:04:53.857Z,101707.01
2019-03-26T17:07:25.450Z,101708.32
2019-03-26T17:09:56.817Z,101715.30
2019-03-26T17:12:28.431Z,101713.68
2019-03-26T17:14:59.807Z,101714.14
2019-03-26T17:17:31.210Z,101711.61
2019-03-26T17:20:02.954Z,101714.89
2019-03-26T17:22:34.561Z,101721.23
2019-03-26T17:25:06.452Z,101718.73
2019-03-26T17:27:39.140Z,101691.24
2019-03-26T17:30:10.673Z,101729.08
2019-03-26T17:32:42.048Z,101716.85
2019-03-26T17:35:13.399Z,101720.07
2019-03-26T17:37:58.569Z,101733.77
2019-03-26T17:40:18.483Z,101725.45
2019-03-26T17:42:50.115Z,101732.64
2019-03-26T17:45:22.449Z,101728.34
2019-03-26T17:47:53.914Z,101729.20
2019-03-26T17:50:25.297Z,101732.45
2019-03-26T17:52:57.864Z,101741.58
2019-03-26T17:55:29.476Z,101743.08
2019-03-26T17:58:00.831Z,101749.94
2019-03-26T18:00:40.985Z,101754.27
2019-03-26T18:03:25.731Z,101752.28
2019-03-26T18:05:47.287Z,101760.85
2019-03-26T18:08:18.741Z,101765.56
2019-03-26T18:10:50.180Z,101761.69
2019-03-26T18:13:21.791Z,101759.10
2019-03-26T18:15:54.353Z,101764.43
2019-03-26T18:18:26.250Z,101762.57
2019-03-26T18:20:57.636Z,101761.64
2019-03-26T18:23:29.349Z,101756.00
2019-03-26T18:26:01.049Z,101756.36
2019-03-26T18:28:33.728Z,101764.20
2019-03-26T18:31:05.407Z,101765.47
2019-03-26T18:33:38.684Z,101766.70
2019-03-26T18:36:10.328Z,101773.65
2019-03-26T18:38:42.509Z,101776.66
2019-03-26T18:41:13.903Z,101773.27
2019-03-26T18:43:45.239Z,101781.57
2019-03-26T18:46:17.227Z,101774.28
2019-03-26T18:48:48.697Z,101760.42
2019-03-26T18:51:20.592Z,101785.59
2019-03-26T18:53:52.018Z,101793.94
2019-03-26T18:56:23.914Z,101802.90
2019-03-26T18:58:55.621Z,101794.62
2019-03-26T19:01:26.985Z,101803.03
2019-03-26T19:03:58.365Z,101804.21
2019-03-26T19:06:29.779Z,101802.42
2019-03-26T19:09:01.141Z,101795.12
2019-03-26T19:11:34.446Z,101801.62
2019-03-26T19:14:06.070Z,101806.40
2019-03-26T19:16:37.673Z,101812.13
2019-03-26T19:19:09.001Z,101816.51
2019-03-26T19:21:40.516Z,101817.92
2019-03-26T19:24:11.903Z,101821.98
2019-03-26T19:26:43.539Z,101819.61
2019-03-26T19:29:14.989Z,101804.80
2019-03-26T19:31:46.462Z,101814.48
2019-03-26T19:34:17.949Z,101803.78
2019-03-26T19:36:49.397Z,101823.33
2019-03-26T19:39:20.875Z,101825.25
2019-03-26T19:41:52.252Z,101822.64
2019-03-26T19:44:23.728Z,101825.55
2019-03-26T19:46:55.377Z,101832.44
2019-03-26T19:49:27.087Z,101836.38
2019-03-26T19:51:58.481Z,101839.62
2019-03-26T19:54:29.865Z,101836.13
2019-03-26T19:57:01.325Z,101844.08
2019-03-26T19:59:33.097Z,101834.04
2019-03-26T20:02:05.229Z,101834.04
2019-03-26T20:04:36.773Z,101843.96
2019-03-26T20:07:08.222Z,101858.31
2019-03-26T20:09:39.631Z,101856.17
2019-03-26T20:12:11.334Z,101862.36
2019-03-26T20:14:42.748Z,101867.98
2019-03-26T20:17:14.107Z,101871.25
2019-03-26T20:19:45.484Z,101875.78
2019-03-26T20:22:16.886Z,101867.08
2019-03-26T20:24:48.286Z,101869.67
2019-03-26T20:27:20.170Z,101869.70
2019-03-26T20:29:51.549Z,101869.77
2019-03-26T20:32:24.954Z,101881.72
2019-03-26T20:34:56.320Z,101873.95
2019-03-26T20:37:27.758Z,101874.86
2019-03-26T20:39:59.188Z,101882.20
2019-03-26T20:42:31.674Z,101881.05
2019-03-26T20:45:03.064Z,101878.48
2019-03-26T20:47:34.654Z,101882.75
2019-03-26T20:50:07.056Z,101886.67
2019-03-26T20:52:38.573Z,101886.22
2019-03-26T20:55:11.153Z,101882.42
2019-03-26T20:57:42.964Z,101891.10
2019-03-26T21:00:19.889Z,101889.92
2019-03-26T21:02:51.644Z,101896.36
2019-03-26T21:05:23.264Z,101899.51
2019-03-26T21:07:55.017Z,101899.38
2019-03-26T21:10:26.428Z,101897.30
2019-03-26T21:12:58.542Z,101899.52
2019-03-26T21:15:29.913Z,101899.69
2019-03-26T21:18:01.641Z,101902.22
2019-03-26T21:20:33.278Z,101910.48
2019-03-26T21:23:05.024Z,101907.02
2019-03-26T21:25:36.385Z,101908.33
2019-03-26T21:28:08.576Z,101915.66
2019-03-26T21:30:39.951Z,101912.36
2019-03-26T21:33:11.427Z,101911.05
2019-03-26T21:35:43.421Z,101908.01
2019-03-26T21:38:15.032Z,101915.45
2019-03-26T21:40:47.440Z,101915.42
2019-03-26T21:45:48.765Z,101921.23
2019-03-26T21:48:20.642Z,101920.39
2019-03-26T21:50:52.640Z,101915.72
2019-03-26T21:53:24.004Z,101929.24
2019-03-26T21:56:05.689Z,101927.87
2019-03-26T21:58:28.772Z,101932.66
2019-03-26T22:01:00.394Z,101927.07
2019-03-26T22:03:31.818Z,101929.80
2019-03-26T22:06:03.377Z,101932.94
2019-03-26T22:08:34.818Z,101928.16
2019-03-26T22:11:06.215Z,101938.47
2019-03-26T22:13:38.250Z,101939.11
2019-03-26T22:16:10.587Z,101939.70
2019-03-26T22:18:42.189Z,101939.77
2019-03-26T22:21:14.850Z,101946.66
2019-03-26T22:23:46.580Z,101958.28
2019-03-26T22:26:18.049Z,101950.94
2019-03-26T22:28:49.838Z,101947.66
2019-03-26T22:31:21.501Z,101950.81
2019-03-26T22:33:52.912Z,101958.34
2019-03-26T22:36:24.846Z,101957.43
2019-03-26T22:38:57.203Z,101958.36
2019-03-26T22:41:28.584Z,101949.34
2019-03-26T22:44:00.422Z,101952.91
2019-03-26T22:46:31.910Z,101947.52
2019-03-26T22:49:03.276Z,101948.36
2019-03-26T22:51:34.721Z,101950.09
2019-03-26T22:54:06.190Z,101949.87
2019-03-26T22:56:38.105Z,101952.50
2019-03-26T22:59:09.717Z,101958.09
2019-03-26T23:01:41.126Z,101962.55
2019-03-26T23:04:12.839Z,101958.95
2019-03-26T23:06:44.458Z,101955.08
2019-03-26T23:09:15.984Z,101957.42
2019-03-26T23:11:48.999Z,101958.61
2019-03-26T23:14:21.391Z,101964.27
2019-03-26T23:16:53.018Z,101968.84
2019-03-26T23:19:24.455Z,101971.28
2019-03-26T23:21:55.883Z,101971.69
2019-03-26T23:24:27.682Z,101973.53
2019-03-26T23:26:59.093Z,101968.72
2019-03-26T23:29:30.686Z,101979.73
2019-03-26T23:32:02.109Z,101975.82
2019-03-26T23:34:33.480Z,101979.76
2019-03-26T23:37:05.135Z,101982.05
2019-03-26T23:39:36.734Z,101981.12
2019-03-26T23:42:08.458Z,101975.48
2019-03-26T23:44:39.829Z,101975.08
2019-03-26T23:47:11.430Z,101980.34
2019-03-26T23:49:43.214Z,101974.28
2019-03-26T23:52:14.663Z,101977.62
2019-03-26T23:54:46.166Z,101977.17
2019-03-26T23:57:17.666Z,101986.14
2019-03-26T23:59:49.268Z,101987.52
